Portada
METAR-TAF:

METAR-TAF

Aeropuertos :

Aeropuerto de Saint-Étienne - Bouthéon

Saint-Etienne, Francia

latitud: 45-32N, longitud: 004-18E, altitud: 404 m

Observación

El informe se hizo hace 34 minutos, a las 01:30 UTC
Viento 1 kt del norte
Temperatura 0°C
Humedad 93%
Presión 1023 hPa
Visibilidad: 4100 m
neblina

METAR: LFMH 240130Z AUTO 35001KT 4100 BR NSC M00/M01 Q1023

Hora: 03:04 (02:04 UTC)

Pronóstico

El informe se hizo hace 9 horas y 6 minutos, a las 16:58 UTC
Pronóstico válido del 23 a las 16 UTC al 24 a las 15 UTC
Viento 7 kt del sur-sureste
Visibilidad: 7000 m
Probabilidad 40% :
Temporalmente
del 23 a las 17 UTC al 24 a las 08 UTC
Visibilidad: 3000 m
neblina
Evolucionando progresivamente
del 24 a las 12 UTC al 24 a las 15 UTC
Viento 5 kt del norte-noreste
Cielo nuboso a una altura de 4500 ft

TAF: LFMH 231658Z 2316/2415 16007KT 7000 NSC PROB40 TEMPO 2317/2408 3000 BR BECMG 2412/2415 02005KT BKN045

Observaciones y pronósticos meteorológicos de más de 4000 aeropuertos (mensajes METAR y TAF).

Los puntos amarillos y rojos representan las estaciones disponibles.

Ponga el ratón en el punto deseado para ver el nombre de la estación.

Haga clic para ver las observaciones y los pronósticos meteorológicos.

Para cambiar el mapa : haga clic en los botones verdes con una cruz de color negro para hacer un zoom, en el botón verde con un guión para alejar o en las flechas verdes para mapas adyacentes.


METAR-TAF: